Wokal Field Glasgow International Airport
KGGW : rendu visible

Aérodrome :











RETROUVEZ-NOUS SUR...

 
LOGIN :

S'inscrire | Disclaimer

   EN    FR    IT 

 









Légende :    VFR   VFR Marginal   IFR   IFR Intensif   IFR Très Intensif
Visi : 
Plafond : 
>= 8 km
>= 3000ft
5 à 8 km
1000 à 3000 ft
1500m à 5 km
500 à 1000 ft
800 à 1500m
200 à 500 ft
< 800m
< 200 ft
Symboles :   Orages  Brouillard  Fortes neiges  Fortes précipitations  Vent > 20 kt






- Altitude de l'aérodrome : 2296 ft
- Code IATA : GGW


KGGW - Wokal Field Glasgow International

DERNIER METAR :
  • 211602Z AUTO 13007KT 10SM SCT023 M03/M05 A3016 RMK AO2 T10281050

METARs EXPIRÉS :
  • 211553Z AUTO 13007KT 10SM BKN023 M03/M05 A3016 RMK AO2 SLP248 T10331050
  • 211453Z AUTO 11006KT 10SM OVC022 M03/M06 A3017 RMK AO2 SLP248 T10331056 52000
  • 211353Z AUTO 11006KT 10SM OVC025 M02/M04 A3017 RMK AO2 SLP247 T10221044
  • 211300Z AUTO 12006KT 10SM FEW008 OVC016 M02/M04 A3016 RMK AO2 T10221044

TAF KGGW
Valide du 21 à 13h jusqu'au 22 à 12h UTC


211230Z 2113/2212 VRB05KT P6SM OVC011
FM211600 VRB04KT P6SM BKN018
FM211800 VRB05KT P6SM BKN050
FM212100 VRB06KT P6SM FEW050
FM220200 12010KT P6SM FEW200



MET'MAP, la Météo Aéronautique d'un coup d'oeil ! - Copyright ORBIFLY Décembre 2007 - Disclaimer

ORBIFLY MET'MAP TEAM :

Programmation & Développement : Alexandra Zaïnal
Conception & Développement : Baudouin d'Aumeries
Co-Programmation & Développement : Marc-Olivier Méhu
Soutien technique & logistique : Manuel Goepfert

Contact : metmap@orbifly.com




SOURCES & CREDITS :

   NOAA       Earth
Advisory